sensor_id;sensor_type;location;lat;lon;timestamp;P1;durP1;ratioP1;P2;durP2;ratioP2
6093;SDS011;19964;42.060;24.700;2022-07-06T00:02:12;14.47;;;11.57;;
6093;SDS011;19964;42.060;24.700;2022-07-06T00:04:39;11.97;;;10.63;;
6093;SDS011;19964;42.060;24.700;2022-07-06T00:07:06;11.97;;;10.53;;
6093;SDS011;19964;42.060;24.700;2022-07-06T00:09:33;12.43;;;10.30;;
6093;SDS011;19964;42.060;24.700;2022-07-06T00:12:00;15.33;;;10.20;;
6093;SDS011;19964;42.060;24.700;2022-07-06T00:14:28;16.17;;;9.37;;
6093;SDS011;19964;42.060;24.700;2022-07-06T00:16:55;10.10;;;9.07;;
6093;SDS011;19964;42.060;24.700;2022-07-06T00:19:22;10.00;;;8.30;;
6093;SDS011;19964;42.060;24.700;2022-07-06T00:21:48;10.80;;;8.37;;
6093;SDS011;19964;42.060;24.700;2022-07-06T00:24:15;11.57;;;7.63;;
6093;SDS011;19964;42.060;24.700;2022-07-06T00:26:43;8.73;;;7.87;;
6093;SDS011;19964;42.060;24.700;2022-07-06T00:29:10;8.97;;;7.43;;
6093;SDS011;19964;42.060;24.700;2022-07-06T00:31:38;8.37;;;6.97;;
6093;SDS011;19964;42.060;24.700;2022-07-06T00:34:05;9.90;;;6.97;;
6093;SDS011;19964;42.060;24.700;2022-07-06T00:36:32;8.37;;;6.60;;
6093;SDS011;19964;42.060;24.700;2022-07-06T00:38:59;8.50;;;6.70;;
6093;SDS011;19964;42.060;24.700;2022-07-06T00:41:26;8.03;;;6.60;;
6093;SDS011;19964;42.060;24.700;2022-07-06T00:43:53;7.83;;;6.63;;
6093;SDS011;19964;42.060;24.700;2022-07-06T00:46:22;7.33;;;6.63;;
6093;SDS011;19964;42.060;24.700;2022-07-06T00:48:54;6.37;;;5.77;;
6093;SDS011;19964;42.060;24.700;2022-07-06T00:51:22;10.83;;;5.80;;
6093;SDS011;19964;42.060;24.700;2022-07-06T00:53:54;9.53;;;5.90;;
6093;SDS011;19964;42.060;24.700;2022-07-06T00:56:24;7.07;;;5.73;;
6093;SDS011;19964;42.060;24.700;2022-07-06T00:58:52;6.97;;;5.97;;
6093;SDS011;19964;42.060;24.700;2022-07-06T01:01:19;11.20;;;5.93;;
6093;SDS011;19964;42.060;24.700;2022-07-06T01:03:46;7.67;;;5.60;;
6093;SDS011;19964;42.060;24.700;2022-07-06T01:06:14;7.77;;;5.20;;
6093;SDS011;19964;42.060;24.700;2022-07-06T01:08:42;6.53;;;5.70;;
6093;SDS011;19964;42.060;24.700;2022-07-06T01:11:08;7.23;;;6.00;;
6093;SDS011;19964;42.060;24.700;2022-07-06T01:13:36;6.90;;;5.97;;
6093;SDS011;19964;42.060;24.700;2022-07-06T01:16:04;6.70;;;6.00;;
6093;SDS011;19964;42.060;24.700;2022-07-06T01:18:31;8.50;;;5.43;;
6093;SDS011;19964;42.060;24.700;2022-07-06T01:21:07;10.03;;;5.77;;
6093;SDS011;19964;42.060;24.700;2022-07-06T01:23:38;12.00;;;6.13;;
6093;SDS011;19964;42.060;24.700;2022-07-06T01:26:08;7.00;;;5.57;;
6093;SDS011;19964;42.060;24.700;2022-07-06T01:28:38;8.77;;;5.80;;
6093;SDS011;19964;42.060;24.700;2022-07-06T01:31:05;6.07;;;5.50;;
6093;SDS011;19964;42.060;24.700;2022-07-06T01:33:32;10.33;;;5.50;;
6093;SDS011;19964;42.060;24.700;2022-07-06T01:35:59;6.27;;;5.70;;
6093;SDS011;19964;42.060;24.700;2022-07-06T01:38:27;6.33;;;5.83;;
6093;SDS011;19964;42.060;24.700;2022-07-06T01:40:54;5.83;;;5.40;;
6093;SDS011;19964;42.060;24.700;2022-07-06T01:43:21;6.20;;;5.40;;
6093;SDS011;19964;42.060;24.700;2022-07-06T01:45:48;6.57;;;5.83;;
6093;SDS011;19964;42.060;24.700;2022-07-06T01:48:14;6.10;;;5.30;;
6093;SDS011;19964;42.060;24.700;2022-07-06T01:50:41;6.83;;;6.10;;
6093;SDS011;19964;42.060;24.700;2022-07-06T01:53:08;6.80;;;6.03;;
6093;SDS011;19964;42.060;24.700;2022-07-06T01:55:37;7.27;;;6.00;;
6093;SDS011;19964;42.060;24.700;2022-07-06T01:58:04;6.83;;;6.13;;
6093;SDS011;19964;42.060;24.700;2022-07-06T02:00:31;8.47;;;6.10;;
6093;SDS011;19964;42.060;24.700;2022-07-06T02:02:57;7.53;;;5.83;;
6093;SDS011;19964;42.060;24.700;2022-07-06T02:05:24;6.77;;;5.70;;
6093;SDS011;19964;42.060;24.700;2022-07-06T02:07:51;7.47;;;6.17;;
6093;SDS011;19964;42.060;24.700;2022-07-06T02:10:18;7.93;;;5.80;;
6093;SDS011;19964;42.060;24.700;2022-07-06T02:12:46;6.67;;;5.77;;
6093;SDS011;19964;42.060;24.700;2022-07-06T02:15:13;7.37;;;5.70;;
6093;SDS011;19964;42.060;24.700;2022-07-06T02:17:40;8.83;;;6.33;;
6093;SDS011;19964;42.060;24.700;2022-07-06T02:20:07;7.57;;;6.20;;
6093;SDS011;19964;42.060;24.700;2022-07-06T02:22:35;9.20;;;5.90;;
6093;SDS011;19964;42.060;24.700;2022-07-06T02:25:02;7.37;;;6.37;;
6093;SDS011;19964;42.060;24.700;2022-07-06T02:27:29;6.40;;;5.80;;
6093;SDS011;19964;42.060;24.700;2022-07-06T02:29:57;6.80;;;6.23;;
6093;SDS011;19964;42.060;24.700;2022-07-06T02:32:24;7.00;;;6.40;;
6093;SDS011;19964;42.060;24.700;2022-07-06T02:34:51;6.87;;;6.17;;
6093;SDS011;19964;42.060;24.700;2022-07-06T02:37:18;10.90;;;6.10;;
6093;SDS011;19964;42.060;24.700;2022-07-06T02:39:45;7.13;;;6.10;;
6093;SDS011;19964;42.060;24.700;2022-07-06T02:42:12;8.77;;;6.80;;
6093;SDS011;19964;42.060;24.700;2022-07-06T02:44:39;7.20;;;6.30;;
6093;SDS011;19964;42.060;24.700;2022-07-06T02:47:07;6.73;;;6.17;;
6093;SDS011;19964;42.060;24.700;2022-07-06T02:49:34;7.90;;;5.70;;
6093;SDS011;19964;42.060;24.700;2022-07-06T02:52:01;6.60;;;6.00;;
6093;SDS011;19964;42.060;24.700;2022-07-06T02:54:28;7.07;;;6.47;;
6093;SDS011;19964;42.060;24.700;2022-07-06T02:56:55;7.10;;;6.40;;
6093;SDS011;19964;42.060;24.700;2022-07-06T02:59:22;7.30;;;6.53;;
6093;SDS011;19964;42.060;24.700;2022-07-06T03:01:49;7.43;;;6.73;;
6093;SDS011;19964;42.060;24.700;2022-07-06T03:04:17;7.73;;;6.27;;
6093;SDS011;19964;42.060;24.700;2022-07-06T03:06:44;12.77;;;6.07;;
6093;SDS011;19964;42.060;24.700;2022-07-06T03:09:11;6.90;;;6.40;;
6093;SDS011;19964;42.060;24.700;2022-07-06T03:11:37;6.87;;;6.27;;
6093;SDS011;19964;42.060;24.700;2022-07-06T03:14:05;7.23;;;6.63;;
6093;SDS011;19964;42.060;24.700;2022-07-06T03:16:32;7.80;;;6.63;;
6093;SDS011;19964;42.060;24.700;2022-07-06T03:18:59;7.13;;;6.60;;
6093;SDS011;19964;42.060;24.700;2022-07-06T03:21:27;6.90;;;6.33;;
6093;SDS011;19964;42.060;24.700;2022-07-06T03:23:54;9.03;;;7.03;;
6093;SDS011;19964;42.060;24.700;2022-07-06T03:26:21;7.67;;;6.90;;
6093;SDS011;19964;42.060;24.700;2022-07-06T03:28:47;6.87;;;6.20;;
6093;SDS011;19964;42.060;24.700;2022-07-06T03:31:14;8.60;;;6.80;;
6093;SDS011;19964;42.060;24.700;2022-07-06T03:33:41;7.33;;;6.73;;
6093;SDS011;19964;42.060;24.700;2022-07-06T03:36:09;7.27;;;6.57;;
6093;SDS011;19964;42.060;24.700;2022-07-06T03:38:37;7.70;;;6.97;;
6093;SDS011;19964;42.060;24.700;2022-07-06T03:41:04;7.40;;;6.70;;
6093;SDS011;19964;42.060;24.700;2022-07-06T03:43:31;7.67;;;7.07;;
6093;SDS011;19964;42.060;24.700;2022-07-06T03:45:58;10.57;;;7.50;;
6093;SDS011;19964;42.060;24.700;2022-07-06T03:48:24;6.90;;;6.40;;
6093;SDS011;19964;42.060;24.700;2022-07-06T03:50:51;9.80;;;7.00;;
6093;SDS011;19964;42.060;24.700;2022-07-06T03:53:18;10.70;;;6.93;;
6093;SDS011;19964;42.060;24.700;2022-07-06T03:55:46;7.20;;;6.60;;
6093;SDS011;19964;42.060;24.700;2022-07-06T03:58:33;8.87;;;6.67;;
6093;SDS011;19964;42.060;24.700;2022-07-06T04:01:00;7.40;;;6.87;;
6093;SDS011;19964;42.060;24.700;2022-07-06T04:03:27;8.07;;;7.47;;
6093;SDS011;19964;42.060;24.700;2022-07-06T04:05:54;8.53;;;7.17;;
6093;SDS011;19964;42.060;24.700;2022-07-06T04:08:20;7.93;;;7.10;;
6093;SDS011;19964;42.060;24.700;2022-07-06T04:10:49;7.60;;;6.67;;
6093;SDS011;19964;42.060;24.700;2022-07-06T04:13:15;7.67;;;7.00;;
6093;SDS011;19964;42.060;24.700;2022-07-06T04:15:42;7.90;;;6.90;;
6093;SDS011;19964;42.060;24.700;2022-07-06T04:18:09;7.30;;;6.70;;
6093;SDS011;19964;42.060;24.700;2022-07-06T04:20:36;7.80;;;6.27;;
6093;SDS011;19964;42.060;24.700;2022-07-06T04:23:03;7.33;;;6.67;;
6093;SDS011;19964;42.060;24.700;2022-07-06T04:25:29;7.23;;;6.50;;
6093;SDS011;19964;42.060;24.700;2022-07-06T04:27:58;8.47;;;6.50;;
6093;SDS011;19964;42.060;24.700;2022-07-06T04:30:25;7.17;;;6.67;;
6093;SDS011;19964;42.060;24.700;2022-07-06T04:32:51;7.03;;;6.37;;
6093;SDS011;19964;42.060;24.700;2022-07-06T04:35:18;7.00;;;6.30;;
6093;SDS011;19964;42.060;24.700;2022-07-06T04:37:45;7.50;;;6.65;;
6093;SDS011;19964;42.060;24.700;2022-07-06T04:40:12;7.20;;;6.63;;
6093;SDS011;19964;42.060;24.700;2022-07-06T04:42:39;7.35;;;6.70;;
6093;SDS011;19964;42.060;24.700;2022-07-06T04:45:08;7.22;;;6.72;;
6093;SDS011;19964;42.060;24.700;2022-07-06T04:47:35;9.10;;;6.70;;
6093;SDS011;19964;42.060;24.700;2022-07-06T04:50:03;7.10;;;6.53;;
6093;SDS011;19964;42.060;24.700;2022-07-06T04:52:30;7.38;;;6.88;;
6093;SDS011;19964;42.060;24.700;2022-07-06T04:54:57;8.45;;;7.20;;
6093;SDS011;19964;42.060;24.700;2022-07-06T04:57:24;9.47;;;7.57;;
6093;SDS011;19964;42.060;24.700;2022-07-06T04:59:51;7.90;;;7.10;;
6093;SDS011;19964;42.060;24.700;2022-07-06T05:02:19;8.17;;;6.80;;
6093;SDS011;19964;42.060;24.700;2022-07-06T05:04:46;10.77;;;7.70;;
6093;SDS011;19964;42.060;24.700;2022-07-06T05:07:13;8.10;;;7.40;;
6093;SDS011;19964;42.060;24.700;2022-07-06T05:09:40;9.10;;;7.90;;
6093;SDS011;19964;42.060;24.700;2022-07-06T05:12:07;9.83;;;8.57;;
6093;SDS011;19964;42.060;24.700;2022-07-06T05:14:35;9.33;;;8.40;;
6093;SDS011;19964;42.060;24.700;2022-07-06T05:17:02;9.03;;;8.33;;
6093;SDS011;19964;42.060;24.700;2022-07-06T05:19:31;9.67;;;8.77;;
6093;SDS011;19964;42.060;24.700;2022-07-06T05:21:58;11.30;;;9.10;;
6093;SDS011;19964;42.060;24.700;2022-07-06T05:24:24;9.23;;;8.43;;
6093;SDS011;19964;42.060;24.700;2022-07-06T05:26:51;9.37;;;8.43;;
6093;SDS011;19964;42.060;24.700;2022-07-06T05:29:18;10.90;;;9.30;;
6093;SDS011;19964;42.060;24.700;2022-07-06T05:31:45;8.80;;;8.13;;
6093;SDS011;19964;42.060;24.700;2022-07-06T05:34:12;9.77;;;8.97;;
6093;SDS011;19964;42.060;24.700;2022-07-06T05:36:40;9.37;;;8.57;;
6093;SDS011;19964;42.060;24.700;2022-07-06T05:39:07;9.77;;;8.93;;
6093;SDS011;19964;42.060;24.700;2022-07-06T05:41:34;9.60;;;8.80;;
6093;SDS011;19964;42.060;24.700;2022-07-06T05:44:01;10.30;;;9.20;;
6093;SDS011;19964;42.060;24.700;2022-07-06T05:46:28;10.53;;;9.00;;
6093;SDS011;19964;42.060;24.700;2022-07-06T05:48:54;9.13;;;8.47;;
6093;SDS011;19964;42.060;24.700;2022-07-06T05:51:42;9.67;;;8.97;;
6093;SDS011;19964;42.060;24.700;2022-07-06T05:54:09;9.77;;;8.87;;
6093;SDS011;19964;42.060;24.700;2022-07-06T05:56:35;9.83;;;8.83;;
6093;SDS011;19964;42.060;24.700;2022-07-06T05:59:02;9.30;;;8.60;;
6093;SDS011;19964;42.060;24.700;2022-07-06T06:01:29;10.18;;;9.25;;
6093;SDS011;19964;42.060;24.700;2022-07-06T06:03:56;11.07;;;10.03;;
6093;SDS011;19964;42.060;24.700;2022-07-06T06:06:24;10.70;;;9.90;;
6093;SDS011;19964;42.060;24.700;2022-07-06T06:08:52;11.20;;;10.30;;
6093;SDS011;19964;42.060;24.700;2022-07-06T06:11:19;10.67;;;9.70;;
6093;SDS011;19964;42.060;24.700;2022-07-06T06:13:46;10.27;;;9.43;;
6093;SDS011;19964;42.060;24.700;2022-07-06T06:16:13;10.47;;;9.50;;
6093;SDS011;19964;42.060;24.700;2022-07-06T06:18:40;10.10;;;9.03;;
6093;SDS011;19964;42.060;24.700;2022-07-06T06:21:07;10.53;;;9.50;;
6093;SDS011;19964;42.060;24.700;2022-07-06T06:23:34;9.93;;;9.03;;
6093;SDS011;19964;42.060;24.700;2022-07-06T06:26:02;10.03;;;9.13;;
6093;SDS011;19964;42.060;24.700;2022-07-06T06:28:29;13.43;;;9.20;;
6093;SDS011;19964;42.060;24.700;2022-07-06T06:30:56;10.45;;;9.57;;
6093;SDS011;19964;42.060;24.700;2022-07-06T06:33:23;10.07;;;9.07;;
6093;SDS011;19964;42.060;24.700;2022-07-06T06:35:50;10.32;;;9.55;;
6093;SDS011;19964;42.060;24.700;2022-07-06T06:38:18;10.27;;;9.48;;
6093;SDS011;19964;42.060;24.700;2022-07-06T06:40:45;10.68;;;9.55;;
6093;SDS011;19964;42.060;24.700;2022-07-06T06:43:14;10.45;;;9.55;;
6093;SDS011;19964;42.060;24.700;2022-07-06T06:45:41;9.77;;;9.02;;
6093;SDS011;19964;42.060;24.700;2022-07-06T06:48:09;10.02;;;9.27;;
6093;SDS011;19964;42.060;24.700;2022-07-06T06:50:36;9.82;;;9.15;;
6093;SDS011;19964;42.060;24.700;2022-07-06T06:53:03;11.35;;;10.15;;
6093;SDS011;19964;42.060;24.700;2022-07-06T06:55:30;11.52;;;10.43;;
6093;SDS011;19964;42.060;24.700;2022-07-06T06:57:56;11.80;;;10.88;;
6093;SDS011;19964;42.060;24.700;2022-07-06T07:00:25;12.27;;;11.00;;
6093;SDS011;19964;42.060;24.700;2022-07-06T07:02:52;11.95;;;10.95;;
6093;SDS011;19964;42.060;24.700;2022-07-06T07:05:18;11.40;;;10.50;;
6093;SDS011;19964;42.060;24.700;2022-07-06T07:07:45;12.75;;;11.73;;
6093;SDS011;19964;42.060;24.700;2022-07-06T07:10:12;12.57;;;11.57;;
6093;SDS011;19964;42.060;24.700;2022-07-06T07:12:42;12.45;;;11.48;;
6093;SDS011;19964;42.060;24.700;2022-07-06T07:15:10;12.35;;;11.35;;
6093;SDS011;19964;42.060;24.700;2022-07-06T07:17:39;12.00;;;11.00;;
6093;SDS011;19964;42.060;24.700;2022-07-06T07:20:06;12.18;;;11.15;;
6093;SDS011;19964;42.060;24.700;2022-07-06T07:22:34;13.00;;;12.00;;
6093;SDS011;19964;42.060;24.700;2022-07-06T07:25:01;12.23;;;11.20;;
6093;SDS011;19964;42.060;24.700;2022-07-06T07:27:28;12.23;;;11.23;;
6093;SDS011;19964;42.060;24.700;2022-07-06T07:29:55;12.32;;;11.23;;
6093;SDS011;19964;42.060;24.700;2022-07-06T07:32:22;13.00;;;11.07;;
6093;SDS011;19964;42.060;24.700;2022-07-06T07:34:50;12.80;;;11.50;;
6093;SDS011;19964;42.060;24.700;2022-07-06T07:37:17;12.55;;;11.52;;
6093;SDS011;19964;42.060;24.700;2022-07-06T07:39:44;11.27;;;10.38;;
6093;SDS011;19964;42.060;24.700;2022-07-06T07:42:11;14.57;;;11.13;;
6093;SDS011;19964;42.060;24.700;2022-07-06T07:44:37;12.07;;;10.82;;
6093;SDS011;19964;42.060;24.700;2022-07-06T07:47:06;11.52;;;10.57;;
6093;SDS011;19964;42.060;24.700;2022-07-06T07:49:33;10.75;;;9.95;;
6093;SDS011;19964;42.060;24.700;2022-07-06T07:52:01;11.45;;;10.45;;
6093;SDS011;19964;42.060;24.700;2022-07-06T07:54:28;11.52;;;10.63;;
6093;SDS011;19964;42.060;24.700;2022-07-06T07:56:55;11.20;;;10.40;;
6093;SDS011;19964;42.060;24.700;2022-07-06T07:59:22;12.63;;;11.38;;
6093;SDS011;19964;42.060;24.700;2022-07-06T08:01:48;11.48;;;10.50;;
6093;SDS011;19964;42.060;24.700;2022-07-06T08:04:15;11.55;;;10.65;;
6093;SDS011;19964;42.060;24.700;2022-07-06T08:06:42;11.57;;;10.55;;
6093;SDS011;19964;42.060;24.700;2022-07-06T08:09:11;12.30;;;11.20;;
6093;SDS011;19964;42.060;24.700;2022-07-06T08:11:37;11.05;;;10.18;;
6093;SDS011;19964;42.060;24.700;2022-07-06T08:14:04;11.45;;;10.60;;
6093;SDS011;19964;42.060;24.700;2022-07-06T08:16:31;11.23;;;10.35;;
6093;SDS011;19964;42.060;24.700;2022-07-06T08:18:58;11.68;;;10.75;;
6093;SDS011;19964;42.060;24.700;2022-07-06T08:21:25;11.32;;;10.43;;
6093;SDS011;19964;42.060;24.700;2022-07-06T08:23:53;10.80;;;10.00;;
6093;SDS011;19964;42.060;24.700;2022-07-06T08:26:22;12.38;;;10.25;;
6093;SDS011;19964;42.060;24.700;2022-07-06T08:28:49;10.65;;;9.85;;
6093;SDS011;19964;42.060;24.700;2022-07-06T08:31:16;10.88;;;9.98;;
6093;SDS011;19964;42.060;24.700;2022-07-06T08:33:42;11.60;;;10.57;;
6093;SDS011;19964;42.060;24.700;2022-07-06T08:36:09;11.15;;;10.18;;
6093;SDS011;19964;42.060;24.700;2022-07-06T08:38:36;11.82;;;10.60;;
6093;SDS011;19964;42.060;24.700;2022-07-06T08:41:03;11.77;;;10.70;;
6093;SDS011;19964;42.060;24.700;2022-07-06T08:43:34;11.10;;;10.25;;
6093;SDS011;19964;42.060;24.700;2022-07-06T08:46:01;11.00;;;10.20;;
6093;SDS011;19964;42.060;24.700;2022-07-06T08:48:29;12.05;;;11.02;;
6093;SDS011;19964;42.060;24.700;2022-07-06T08:51:02;12.23;;;10.98;;
6093;SDS011;19964;42.060;24.700;2022-07-06T08:53:30;12.57;;;11.48;;
6093;SDS011;19964;42.060;24.700;2022-07-06T08:55:57;13.57;;;10.75;;
6093;SDS011;19964;42.060;24.700;2022-07-06T08:58:24;11.93;;;10.60;;
6093;SDS011;19964;42.060;24.700;2022-07-06T09:00:52;11.02;;;10.23;;
6093;SDS011;19964;42.060;24.700;2022-07-06T09:03:21;11.63;;;10.50;;
6093;SDS011;19964;42.060;24.700;2022-07-06T09:05:48;12.18;;;11.02;;
6093;SDS011;19964;42.060;24.700;2022-07-06T09:08:16;12.85;;;10.85;;
6093;SDS011;19964;42.060;24.700;2022-07-06T09:10:44;12.38;;;11.30;;
6093;SDS011;19964;42.060;24.700;2022-07-06T09:13:11;11.32;;;10.32;;
6093;SDS011;19964;42.060;24.700;2022-07-06T09:15:38;12.38;;;11.38;;
6093;SDS011;19964;42.060;24.700;2022-07-06T09:18:06;12.23;;;11.10;;
6093;SDS011;19964;42.060;24.700;2022-07-06T09:20:33;12.65;;;11.43;;
6093;SDS011;19964;42.060;24.700;2022-07-06T09:23:01;12.52;;;11.63;;
6093;SDS011;19964;42.060;24.700;2022-07-06T09:25:30;12.88;;;11.68;;
6093;SDS011;19964;42.060;24.700;2022-07-06T09:27:57;12.80;;;11.70;;
6093;SDS011;19964;42.060;24.700;2022-07-06T09:30:25;17.95;;;11.70;;
6093;SDS011;19964;42.060;24.700;2022-07-06T09:32:53;12.73;;;11.43;;
6093;SDS011;19964;42.060;24.700;2022-07-06T09:35:23;12.60;;;11.55;;
6093;SDS011;19964;42.060;24.700;2022-07-06T09:37:59;13.07;;;11.95;;
6093;SDS011;19964;42.060;24.700;2022-07-06T09:40:27;13.48;;;12.15;;
6093;SDS011;19964;42.060;24.700;2022-07-06T09:43:06;13.40;;;11.57;;
6093;SDS011;19964;42.060;24.700;2022-07-06T09:45:38;12.80;;;11.73;;
6093;SDS011;19964;42.060;24.700;2022-07-06T09:48:06;15.65;;;11.90;;
6093;SDS011;19964;42.060;24.700;2022-07-06T09:50:41;13.15;;;11.93;;
6093;SDS011;19964;42.060;24.700;2022-07-06T09:53:08;13.07;;;11.95;;
6093;SDS011;19964;42.060;24.700;2022-07-06T09:55:36;13.63;;;12.32;;
6093;SDS011;19964;42.060;24.700;2022-07-06T09:58:03;12.30;;;11.30;;
6093;SDS011;19964;42.060;24.700;2022-07-06T10:00:30;14.32;;;11.50;;
6093;SDS011;19964;42.060;24.700;2022-07-06T10:02:57;13.65;;;12.00;;
6093;SDS011;19964;42.060;24.700;2022-07-06T10:05:26;12.27;;;11.30;;
6093;SDS011;19964;42.060;24.700;2022-07-06T10:07:57;12.07;;;11.07;;
6093;SDS011;19964;42.060;24.700;2022-07-06T10:10:26;12.15;;;10.98;;
6093;SDS011;19964;42.060;24.700;2022-07-06T10:12:54;16.40;;;11.63;;
6093;SDS011;19964;42.060;24.700;2022-07-06T10:15:22;12.38;;;11.20;;
6093;SDS011;19964;42.060;24.700;2022-07-06T10:17:49;13.00;;;11.18;;
6093;SDS011;19964;42.060;24.700;2022-07-06T10:20:17;12.00;;;10.77;;
6093;SDS011;19964;42.060;24.700;2022-07-06T10:22:45;15.50;;;10.63;;
6093;SDS011;19964;42.060;24.700;2022-07-06T10:25:14;14.05;;;10.50;;
6093;SDS011;19964;42.060;24.700;2022-07-06T10:27:42;11.10;;;10.15;;
6093;SDS011;19964;42.060;24.700;2022-07-06T10:30:09;11.68;;;10.60;;
6093;SDS011;19964;42.060;24.700;2022-07-06T10:32:37;10.95;;;9.88;;
6093;SDS011;19964;42.060;24.700;2022-07-06T10:35:07;11.20;;;10.20;;
6093;SDS011;19964;42.060;24.700;2022-07-06T10:37:35;11.60;;;10.20;;
6093;SDS011;19964;42.060;24.700;2022-07-06T10:40:02;11.63;;;10.55;;
6093;SDS011;19964;42.060;24.700;2022-07-06T10:42:48;12.05;;;10.45;;
6093;SDS011;19964;42.060;24.700;2022-07-06T10:45:20;10.57;;;8.50;;
6093;SDS011;19964;42.060;24.700;2022-07-06T10:48:16;10.77;;;9.05;;
6093;SDS011;19964;42.060;24.700;2022-07-06T10:50:47;10.23;;;9.15;;
6093;SDS011;19964;42.060;24.700;2022-07-06T10:53:16;10.13;;;9.18;;
6093;SDS011;19964;42.060;24.700;2022-07-06T10:55:44;9.15;;;8.20;;
6093;SDS011;19964;42.060;24.700;2022-07-06T10:58:14;8.35;;;7.68;;
6093;SDS011;19964;42.060;24.700;2022-07-06T11:00:47;11.57;;;8.40;;
6093;SDS011;19964;42.060;24.700;2022-07-06T11:06:07;9.30;;;8.57;;
6093;SDS011;19964;42.060;24.700;2022-07-06T11:11:25;8.23;;;7.55;;
6093;SDS011;19964;42.060;24.700;2022-07-06T11:14:07;9.13;;;8.20;;
6093;SDS011;19964;42.060;24.700;2022-07-06T11:16:36;9.02;;;8.25;;
6093;SDS011;19964;42.060;24.700;2022-07-06T11:19:06;9.25;;;8.35;;
6093;SDS011;19964;42.060;24.700;2022-07-06T11:21:43;9.43;;;8.73;;
6093;SDS011;19964;42.060;24.700;2022-07-06T11:24:12;9.57;;;8.77;;
6093;SDS011;19964;42.060;24.700;2022-07-06T11:26:41;10.65;;;8.75;;
6093;SDS011;19964;42.060;24.700;2022-07-06T11:29:13;9.98;;;8.82;;
6093;SDS011;19964;42.060;24.700;2022-07-06T11:31:41;9.70;;;8.90;;
6093;SDS011;19964;42.060;24.700;2022-07-06T11:34:09;9.73;;;8.80;;
6093;SDS011;19964;42.060;24.700;2022-07-06T11:36:38;10.00;;;9.00;;
6093;SDS011;19964;42.060;24.700;2022-07-06T11:39:06;10.65;;;9.65;;
6093;SDS011;19964;42.060;24.700;2022-07-06T11:41:33;9.88;;;8.95;;
6093;SDS011;19964;42.060;24.700;2022-07-06T11:44:00;10.38;;;9.48;;
6093;SDS011;19964;42.060;24.700;2022-07-06T11:46:29;10.30;;;9.30;;
6093;SDS011;19964;42.060;24.700;2022-07-06T11:48:57;10.70;;;9.57;;
6093;SDS011;19964;42.060;24.700;2022-07-06T11:51:27;12.65;;;9.48;;
6093;SDS011;19964;42.060;24.700;2022-07-06T11:53:56;10.52;;;9.55;;
6093;SDS011;19964;42.060;24.700;2022-07-06T11:56:25;9.73;;;8.80;;
6093;SDS011;19964;42.060;24.700;2022-07-06T11:58:53;10.20;;;9.02;;
6093;SDS011;19964;42.060;24.700;2022-07-06T12:01:22;10.40;;;9.30;;
6093;SDS011;19964;42.060;24.700;2022-07-06T12:03:51;9.77;;;8.77;;
6093;SDS011;19964;42.060;24.700;2022-07-06T12:06:19;9.70;;;8.77;;
6093;SDS011;19964;42.060;24.700;2022-07-06T12:08:47;10.95;;;10.05;;
6093;SDS011;19964;42.060;24.700;2022-07-06T12:11:22;11.55;;;10.45;;
6093;SDS011;19964;42.060;24.700;2022-07-06T12:13:50;12.23;;;10.18;;
6093;SDS011;19964;42.060;24.700;2022-07-06T12:16:19;11.00;;;10.13;;
6093;SDS011;19964;42.060;24.700;2022-07-06T12:18:48;11.02;;;10.15;;
6093;SDS011;19964;42.060;24.700;2022-07-06T12:21:17;16.77;;;10.45;;
6093;SDS011;19964;42.060;24.700;2022-07-06T12:23:47;11.27;;;10.27;;
6093;SDS011;19964;42.060;24.700;2022-07-06T12:26:16;12.10;;;11.07;;
6093;SDS011;19964;42.060;24.700;2022-07-06T12:28:46;12.57;;;11.40;;
6093;SDS011;19964;42.060;24.700;2022-07-06T12:33:58;11.60;;;10.70;;
6093;SDS011;19964;42.060;24.700;2022-07-06T12:36:27;10.82;;;10.02;;
6093;SDS011;19964;42.060;24.700;2022-07-06T12:38:54;11.75;;;10.85;;
6093;SDS011;19964;42.060;24.700;2022-07-06T12:41:27;11.63;;;10.70;;
6093;SDS011;19964;42.060;24.700;2022-07-06T12:44:00;11.55;;;10.43;;
6093;SDS011;19964;42.060;24.700;2022-07-06T12:46:33;11.35;;;10.45;;
6093;SDS011;19964;42.060;24.700;2022-07-06T12:49:10;11.82;;;10.63;;
6093;SDS011;19964;42.060;24.700;2022-07-06T12:51:54;10.45;;;9.65;;
6093;SDS011;19964;42.060;24.700;2022-07-06T12:54:23;11.35;;;10.18;;
6093;SDS011;19964;42.060;24.700;2022-07-06T12:57:02;11.32;;;10.23;;
6093;SDS011;19964;42.060;24.700;2022-07-06T12:59:38;10.88;;;10.00;;
6093;SDS011;19964;42.060;24.700;2022-07-06T13:02:07;11.07;;;10.07;;
6093;SDS011;19964;42.060;24.700;2022-07-06T13:04:42;10.73;;;9.82;;
6093;SDS011;19964;42.060;24.700;2022-07-06T13:07:18;10.88;;;9.75;;
6093;SDS011;19964;42.060;24.700;2022-07-06T13:09:45;10.18;;;9.48;;
6093;SDS011;19964;42.060;24.700;2022-07-06T13:12:12;10.98;;;9.93;;
6093;SDS011;19964;42.060;24.700;2022-07-06T13:14:39;10.45;;;9.57;;
6093;SDS011;19964;42.060;24.700;2022-07-06T13:17:06;10.57;;;9.45;;
6093;SDS011;19964;42.060;24.700;2022-07-06T13:19:33;11.10;;;10.20;;
6093;SDS011;19964;42.060;24.700;2022-07-06T13:22:00;10.25;;;9.55;;
6093;SDS011;19964;42.060;24.700;2022-07-06T13:24:28;10.43;;;9.60;;
6093;SDS011;19964;42.060;24.700;2022-07-06T13:26:56;10.77;;;9.88;;
6093;SDS011;19964;42.060;24.700;2022-07-06T13:29:23;11.23;;;10.13;;
6093;SDS011;19964;42.060;24.700;2022-07-06T13:31:50;11.27;;;10.02;;
6093;SDS011;19964;42.060;24.700;2022-07-06T13:34:17;11.45;;;10.35;;
6093;SDS011;19964;42.060;24.700;2022-07-06T13:36:44;11.25;;;10.38;;
6093;SDS011;19964;42.060;24.700;2022-07-06T13:39:11;11.00;;;10.25;;
6093;SDS011;19964;42.060;24.700;2022-07-06T13:41:39;16.35;;;10.80;;
6093;SDS011;19964;42.060;24.700;2022-07-06T13:44:06;11.57;;;10.43;;
6093;SDS011;19964;42.060;24.700;2022-07-06T13:46:34;11.63;;;10.35;;
6093;SDS011;19964;42.060;24.700;2022-07-06T13:49:02;11.77;;;10.63;;
6093;SDS011;19964;42.060;24.700;2022-07-06T13:51:29;11.32;;;10.45;;
6093;SDS011;19964;42.060;24.700;2022-07-06T13:53:57;12.50;;;11.35;;
6093;SDS011;19964;42.060;24.700;2022-07-06T13:56:24;12.50;;;11.48;;
6093;SDS011;19964;42.060;24.700;2022-07-06T13:58:53;17.15;;;11.57;;
6093;SDS011;19964;42.060;24.700;2022-07-06T14:01:20;12.25;;;11.27;;
6093;SDS011;19964;42.060;24.700;2022-07-06T14:03:48;12.77;;;11.57;;
6093;SDS011;19964;42.060;24.700;2022-07-06T14:06:15;13.93;;;12.40;;
6093;SDS011;19964;42.060;24.700;2022-07-06T14:08:42;13.98;;;12.15;;
6093;SDS011;19964;42.060;24.700;2022-07-06T14:11:09;13.15;;;12.15;;
6093;SDS011;19964;42.060;24.700;2022-07-06T14:13:36;13.70;;;12.52;;
6093;SDS011;19964;42.060;24.700;2022-07-06T14:16:05;13.93;;;12.73;;
6093;SDS011;19964;42.060;24.700;2022-07-06T14:18:33;13.75;;;12.48;;
6093;SDS011;19964;42.060;24.700;2022-07-06T14:21:00;13.77;;;12.43;;
6093;SDS011;19964;42.060;24.700;2022-07-06T14:23:27;14.15;;;13.02;;
6093;SDS011;19964;42.060;24.700;2022-07-06T14:25:55;13.13;;;11.95;;
6093;SDS011;19964;42.060;24.700;2022-07-06T14:28:22;14.05;;;12.65;;
6093;SDS011;19964;42.060;24.700;2022-07-06T14:30:49;13.38;;;11.90;;
6093;SDS011;19964;42.060;24.700;2022-07-06T14:33:17;14.27;;;12.43;;
6093;SDS011;19964;42.060;24.700;2022-07-06T14:35:46;17.63;;;12.48;;
6093;SDS011;19964;42.060;24.700;2022-07-06T14:38:14;15.13;;;13.57;;
6093;SDS011;19964;42.060;24.700;2022-07-06T14:40:41;15.15;;;13.75;;
6093;SDS011;19964;42.060;24.700;2022-07-06T14:43:09;15.07;;;13.70;;
6093;SDS011;19964;42.060;24.700;2022-07-06T14:45:36;13.82;;;12.52;;
6093;SDS011;19964;42.060;24.700;2022-07-06T14:48:04;14.95;;;13.52;;